Time;durP1;ratioP1;P1;durP2;ratioP2;P2;SDS_P1;SDS_P2;PMS_P1;PMS_P2;Temp;Humidity;BMP_temperature;BMP_pressure;BME280_temperature;BME280_humidity;BME280_pressure;Samples;Min_cycle;Max_cycle;Signal;HPM_P1;HPM_P2
2022/03/02 08:30:06;;;;;;;22.93;9.57;;;;;;;-1.27;98.33;99699.13;5109868;27;20393;-78
2022/03/02 08:32:37;;;;;;;24.83;9.77;;;;;;;-1.20;97.72;99703.13;5110043;28;20109;-78
2022/03/02 08:35:05;;;;;;;31.80;11.87;;;;;;;-1.05;98.74;99711.97;5107274;28;20052;-78
2022/03/02 08:37:33;;;;;;;22.80;11.27;;;;;;;-0.96;97.34;99714.06;5107275;28;20050;-78
2022/03/02 08:40:00;;;;;;;25.43;11.17;;;;;;;-0.64;93.81;99697.75;5107758;28;20040;-78
2022/03/02 08:42:26;;;;;;;27.30;11.80;;;;;;;-0.49;94.09;99711.06;5105858;28;20043;-78
2022/03/02 08:44:54;;;;;;;20.83;11.33;;;;;;;-0.27;93.20;99694.44;5107117;28;20044;-78
2022/03/02 08:47:23;;;;;;;24.73;11.43;;;;;;;0.10;93.91;99706.19;5108085;28;20040;-76
2022/03/02 08:49:50;;;;;;;20.48;10.45;;;;;;;0.17;90.61;99691.44;5107171;28;20048;-76
2022/03/02 08:52:21;;;;;;;17.20;9.17;;;;;;;0.31;89.39;99671.75;5107657;28;20054;-77
2022/03/02 08:54:49;;;;;;;21.83;9.68;;;;;;;0.47;88.72;99676.06;5106785;28;20043;-77
2022/03/02 08:57:16;;;;;;;24.37;10.93;;;;;;;0.58;91.38;99664.59;5107601;28;20051;-77
2022/03/02 08:59:42;;;;;;;20.85;10.52;;;;;;;0.68;90.35;99660.28;5103533;28;20607;-77
2022/03/02 09:02:09;;;;;;;29.10;10.38;;;;;;;0.80;90.52;99669.25;5107089;28;20074;-77
2022/03/02 09:04:38;;;;;;;20.15;11.07;;;;;;;1.12;89.35;99679.47;5106504;28;20039;-77
2022/03/02 09:07:06;;;;;;;26.77;10.23;;;;;;;1.14;87.34;99642.69;5107342;28;20415;-77
2022/03/02 09:09:33;;;;;;;24.27;9.57;;;;;;;1.31;85.57;99639.66;5107357;28;20083;-77
2022/03/02 09:11:59;;;;;;;21.40;9.60;;;;;;;1.57;83.34;99655.59;5107332;28;20059;-76
2022/03/02 09:14:26;;;;;;;26.08;10.05;;;;;;;1.69;82.88;99668.06;5107094;28;20044;-77
2022/03/02 09:16:53;;;;;;;19.25;9.32;;;;;;;1.99;82.17;99668.50;5104362;28;20060;-77
2022/03/02 09:19:19;;;;;;;18.35;8.75;;;;;;;2.00;81.07;99649.63;5106820;28;20075;-78
2022/03/02 09:21:48;;;;;;;17.55;8.52;;;;;;;2.07;77.49;99633.94;5107373;28;20052;-78
2022/03/02 09:24:16;;;;;;;20.30;6.85;;;;;;;2.21;77.97;99663.19;5106153;28;20609;-77
2022/03/02 09:26:44;;;;;;;18.05;7.45;;;;;;;2.29;76.00;99659.94;5105832;28;20479;-77
2022/03/02 09:29:10;;;;;;;18.23;7.53;;;;;;;2.46;75.76;99645.19;5092605;28;20031;-77
2022/03/02 09:31:38;;;;;;;17.25;7.78;;;;;;;2.78;73.13;99645.28;5086012;28;20071;-77
2022/03/02 09:34:08;;;;;;;16.27;6.82;;;;;;;3.00;68.67;99644.44;5086232;28;20052;-77
2022/03/02 09:36:37;;;;;;;12.63;6.88;;;;;;;3.16;68.55;99633.28;5086483;28;20056;-78
2022/03/02 09:39:07;;;;;;;16.73;5.93;;;;;;;3.10;60.07;99639.16;5084338;28;20488;-77
2022/03/02 09:41:43;;;;;;;10.68;5.63;;;;;;;3.34;58.71;99654.22;5071835;28;20053;-78
2022/03/02 09:44:13;;;;;;;8.43;5.47;;;;;;;3.44;59.45;99644.44;5072622;28;20474;-78
2022/03/02 09:46:41;;;;;;;12.00;5.60;;;;;;;3.62;58.20;99641.19;5066260;28;20503;-78
2022/03/02 09:49:10;;;;;;;10.63;5.57;;;;;;;3.62;55.11;99660.88;5067845;28;20601;-78
2022/03/02 09:51:39;;;;;;;8.52;5.13;;;;;;;3.66;54.38;99659.63;5071150;28;20139;-78
2022/03/02 09:54:08;;;;;;;16.80;5.60;;;;;;;3.70;54.50;99657.53;5070055;28;20506;-78
2022/03/02 09:56:36;;;;;;;9.18;4.75;;;;;;;3.61;54.14;99645.72;5072513;28;20059;-78
2022/03/02 09:59:05;;;;;;;10.48;7.45;;;;;;;3.80;54.91;99646.88;5072261;28;20572;-78
2022/03/02 10:01:34;;;;;;;10.35;5.07;;;;;;;3.84;56.84;99638.41;5070805;28;20047;-79
2022/03/02 10:04:13;;;;;;;13.18;5.53;;;;;;;4.08;56.92;99659.66;5070636;28;20052;-78
2022/03/02 10:06:43;;;;;;;11.13;5.03;;;;;;;4.17;56.66;99649.97;5072550;28;20431;-78
2022/03/02 10:09:13;;;;;;;14.95;5.18;;;;;;;4.16;56.11;99631.25;5072049;28;20045;-80
2022/03/02 10:11:42;;;;;;;11.15;5.50;;;;;;;4.17;55.71;99639.19;5072532;28;20052;-79
2022/03/02 10:14:10;;;;;;;9.40;5.25;;;;;;;4.35;55.65;99642.13;5070083;28;20044;-79
2022/03/02 10:16:45;;;;;;;14.27;5.97;;;;;;;4.52;54.11;99637.13;5072329;28;20091;-79
2022/03/02 10:19:23;;;;;;;11.48;5.40;;;;;;;4.49;53.71;99637.41;5071897;28;20090;-79
2022/03/02 10:22:03;;;;;;;8.20;5.55;;;;;;;4.78;53.38;99637.50;5071872;28;20048;-79
2022/03/02 10:24:31;;;;;;;;;;;;;;;5.02;53.90;99641.69;5070462;28;20484;-79
2022/03/02 10:27:05;;;;;;;11.68;5.43;;;;;;;5.02;52.76;99645.25;5072048;28;19920;-79
2022/03/02 10:29:41;;;;;;;19.48;6.45;;;;;;;5.18;53.66;99631.25;5071289;28;20045;-80
2022/03/02 10:32:15;;;;;;;10.73;5.82;;;;;;;5.03;50.28;99641.56;5071688;28;20044;-79
2022/03/02 10:34:49;;;;;;;13.57;5.40;;;;;;;5.01;51.86;99637.28;5063280;28;20052;-80
2022/03/02 10:37:30;;;;;;;8.68;5.25;;;;;;;5.13;51.77;99639.75;5070126;28;20056;-80
2022/03/02 10:40:05;;;;;;;10.98;5.72;;;;;;;5.34;51.90;99630.69;5071969;28;20047;-79
2022/03/02 10:42:36;;;;;;;14.10;5.68;;;;;;;5.36;50.68;99626.03;5070399;28;20056;-79
2022/03/02 10:45:10;;;;;;;14.65;6.18;;;;;;;5.29;49.75;99623.03;5071031;28;20052;-80
2022/03/02 10:47:42;;;;;;;9.35;5.43;;;;;;;5.44;51.31;99620.75;5071806;28;20040;-79
2022/03/02 10:50:09;;;;;;;10.98;5.78;;;;;;;5.24;49.00;99613.63;5071272;28;20052;-79
2022/03/02 10:52:37;;;;;;;10.93;5.72;;;;;;;5.09;49.82;99614.06;5068996;28;20071;-79
2022/03/02 10:55:08;;;;;;;12.10;5.90;;;;;;;5.36;51.54;99614.38;5070910;28;20048;-79
2022/03/02 10:57:35;;;;;;;13.45;5.90;;;;;;;5.48;50.08;99594.38;5071516;28;20045;-79
2022/03/02 11:00:09;;;;;;;13.95;5.13;;;;;;;5.53;49.55;99594.81;5071339;28;20055;-79
2022/03/02 11:02:40;;;;;;;12.50;6.05;;;;;;;5.55;50.65;99600.06;5068992;28;20048;-79
2022/03/02 11:05:10;;;;;;;14.23;7.35;;;;;;;5.65;50.18;99615.22;5070851;28;20052;-80
2022/03/02 11:07:36;;;;;;;;;;;;;;;5.56;49.43;99607.16;5067511;28;20051;-80
2022/03/02 11:10:09;;;;;;;12.32;5.72;;;;;;;5.28;49.29;99588.13;5071101;28;20257;-80
2022/03/02 11:12:37;;;;;;;12.40;6.38;;;;;;;5.00;48.95;99589.78;5078506;28;20057;-80
2022/03/02 11:15:07;;;;;;;12.02;5.97;;;;;;;5.14;48.50;99595.63;5070232;28;20048;-80
2022/03/02 11:17:34;;;;;;;11.75;6.25;;;;;;;5.37;50.34;99591.81;5070913;28;20046;-80
2022/03/02 11:20:10;;;;;;;16.38;6.35;;;;;;;5.17;48.62;99583.72;5071061;28;20036;-80
2022/03/02 11:22:38;;;;;;;17.10;6.20;;;;;;;5.44;48.09;99588.41;5067153;28;20052;-80
2022/03/02 11:25:07;;;;;;;13.80;6.72;;;;;;;5.64;49.10;99581.16;5067217;28;20055;-79
2022/03/02 11:27:38;;;;;;;14.23;6.17;;;;;;;5.89;48.80;99578.03;5065716;28;20407;-80
2022/03/02 11:30:09;;;;;;;9.00;4.97;;;;;;;5.96;48.01;99568.34;5070071;28;20042;-80
2022/03/02 11:32:39;;;;;;;9.93;5.82;;;;;;;5.74;49.21;99575.75;5070296;28;20495;-80
2022/03/02 11:35:08;;;;;;;11.38;6.28;;;;;;;5.91;48.76;99576.03;5069808;28;20044;-80
2022/03/02 11:37:35;;;;;;;7.72;5.38;;;;;;;6.00;48.98;99573.31;5070381;28;20067;-80
2022/03/02 11:40:04;;;;;;;12.27;6.10;;;;;;;5.97;49.34;99545.78;5073796;28;20070;-80
2022/03/02 11:42:34;;;;;;;12.65;5.75;;;;;;;6.27;48.35;99558.19;5064765;28;20060;-80
2022/03/02 11:45:02;;;;;;;13.45;5.75;;;;;;;5.87;49.32;99539.53;5069524;28;20135;-80
2022/03/02 11:47:35;;;;;;;8.75;5.55;;;;;;;6.38;49.91;99554.47;5069760;28;20059;-80
2022/03/02 11:50:02;;;;;;;11.05;6.57;;;;;;;6.55;49.15;99544.72;5068273;28;20515;-80
2022/03/02 11:52:30;;;;;;;13.93;5.38;;;;;;;6.45;47.53;99544.75;5071368;28;20051;-80
2022/03/02 11:55:00;;;;;;;10.63;5.35;;;;;;;6.60;47.36;99538.88;5071793;28;20126;-80
2022/03/02 11:57:28;;;;;;;8.68;5.43;;;;;;;6.61;49.00;99543.25;5061638;28;20643;-80
2022/03/02 12:00:08;;;;;;;11.98;5.72;;;;;;;6.78;48.81;99549.72;5070043;28;20056;-81
2022/03/02 12:02:42;;;;;;;11.68;5.75;;;;;;;6.51;48.51;99532.53;5069849;28;20056;-81
2022/03/02 12:05:09;;;;;;;9.60;5.93;;;;;;;6.62;49.02;99550.38;5067655;28;20049;-81
2022/03/02 12:07:40;;;;;;;10.88;6.22;;;;;;;6.77;47.89;99529.09;5075738;28;20123;-81
2022/03/02 12:10:20;;;;;;;12.60;5.88;;;;;;;6.83;48.35;99539.31;5070135;28;20049;-81
2022/03/02 12:12:47;;;;;;;12.00;5.65;;;;;;;6.24;49.11;99525.25;5069156;28;20052;-80
2022/03/02 12:15:16;;;;;;;11.07;6.28;;;;;;;6.58;49.48;99535.47;5066799;28;20049;-81
2022/03/02 12:17:43;;;;;;;8.32;5.50;;;;;;;6.21;49.90;99529.09;5070113;28;20048;-81
2022/03/02 12:20:11;;;;;;;9.65;5.15;;;;;;;6.23;50.05;99529.78;5070508;28;20044;-80
2022/03/02 12:22:39;;;;;;;12.70;6.72;;;;;;;6.09;50.08;99511.38;5062131;28;20045;-80
2022/03/02 12:25:08;;;;;;;10.57;5.18;;;;;;;6.36;49.84;99507.84;5063012;28;20079;-80
2022/03/02 12:27:35;;;;;;;13.63;5.90;;;;;;;6.41;49.75;99520.91;5070112;28;20055;-80
2022/03/02 12:30:05;;;;;;;10.82;5.75;;;;;;;6.29;49.17;99509.44;5072024;28;20480;-80
2022/03/02 12:32:34;;;;;;;8.13;3.25;;;;;;;5.82;50.17;99497.63;5069894;28;20084;-80
2022/03/02 12:35:03;;;;;;;11.68;5.55;;;;;;;6.12;50.97;99517.31;5067964;28;20101;-81
2022/03/02 12:37:30;;;;;;;9.18;5.82;;;;;;;6.14;50.20;99515.34;5069683;28;20128;-79
2022/03/02 12:39:57;;;;;;;12.77;6.65;;;;;;;6.33;50.43;99514.41;5067822;28;20420;-80
2022/03/02 12:42:24;;;;;;;9.75;5.72;;;;;;;6.29;50.40;99521.13;5069360;28;20044;-80
2022/03/02 12:44:54;;;;;;;15.75;6.47;;;;;;;6.16;51.41;99523.28;5069286;28;20098;-80
2022/03/02 12:47:22;;;;;;;;;;;;;;;6.12;52.01;99514.63;5069975;28;20048;-80
2022/03/02 12:49:51;;;;;;;8.70;5.80;;;;;;;6.08;53.11;99506.97;5068856;28;19924;-80
2022/03/02 12:52:18;;;;;;;11.98;6.70;;;;;;;6.09;52.79;99500.59;5068262;28;20040;-81
2022/03/02 12:54:47;;;;;;;11.23;6.63;;;;;;;6.17;52.97;99509.66;5067821;28;20063;-80
2022/03/02 12:57:19;;;;;;;10.45;6.15;;;;;;;5.78;53.47;99495.38;5065416;28;20040;-81
2022/03/02 12:59:47;;;;;;;12.48;7.07;;;;;;;5.88;54.05;99504.31;5070267;28;20068;-81
2022/03/02 13:02:16;;;;;;;14.45;6.28;;;;;;;6.00;53.62;99491.53;5066961;28;20056;-80
2022/03/02 13:04:58;;;;;;;12.13;6.05;;;;;;;6.02;54.26;99495.78;5070412;28;20052;-80
2022/03/02 13:07:40;;;;;;;8.43;5.28;;;;;;;5.94;54.98;99487.53;5071046;28;20041;-80
2022/03/02 13:10:08;;;;;;;11.48;7.15;;;;;;;6.19;54.44;99510.34;5067689;28;20055;-81
2022/03/02 13:12:38;;;;;;;16.58;6.47;;;;;;;6.20;54.22;99494.97;5067658;28;20051;-81
2022/03/02 13:15:24;;;;;;;13.90;6.97;;;;;;;6.14;53.83;99506.38;5062077;28;20302;-81
2022/03/02 13:18:15;;;;;;;8.27;5.40;;;;;;;6.14;53.48;99487.47;5071961;28;20411;-81
2022/03/02 13:20:44;;;;;;;11.05;6.03;;;;;;;6.02;53.88;99489.50;5070390;28;20048;-81
2022/03/02 13:23:13;;;;;;;13.60;6.00;;;;;;;6.15;53.84;99490.03;5070850;28;20044;-81
2022/03/02 13:25:40;;;;;;;13.15;6.50;;;;;;;6.36;53.09;99484.38;5071768;28;20538;-80
2022/03/02 13:28:09;;;;;;;11.35;6.65;;;;;;;6.27;52.78;99470.94;5071716;28;20048;-81
2022/03/02 13:30:36;;;;;;;12.40;6.38;;;;;;;6.10;52.58;99491.50;5076138;28;20483;-80
2022/03/02 13:33:04;;;;;;;11.80;5.97;;;;;;;6.07;53.30;99489.06;5077633;28;20050;-81
2022/03/02 13:35:33;;;;;;;11.30;6.45;;;;;;;6.08;53.28;99470.06;5072437;28;20132;-81
2022/03/02 13:38:07;;;;;;;11.25;6.15;;;;;;;6.13;53.51;99454.25;5071150;28;20572;-81
2022/03/02 13:40:46;;;;;;;10.68;6.45;;;;;;;6.16;52.78;99475.53;5071009;28;20135;-79
2022/03/02 13:43:37;;;;;;;12.13;6.47;;;;;;;6.13;53.11;99473.16;5069219;28;20048;-80
2022/03/02 13:46:22;;;;;;;10.10;6.07;;;;;;;6.26;52.09;99467.38;5073887;28;20169;-80
2022/03/02 13:48:55;;;;;;;10.95;6.30;;;;;;;6.53;52.72;99473.78;5072034;28;20060;-80
2022/03/02 13:51:26;;;;;;;13.40;6.43;;;;;;;6.64;52.37;99461.91;5064783;28;20502;-80
2022/03/02 13:54:04;;;;;;;11.32;5.82;;;;;;;6.65;51.37;99463.63;5070640;28;20045;-80
2022/03/02 13:56:37;;;;;;;16.25;7.03;;;;;;;6.38;52.24;99447.31;5065561;28;20061;-80
2022/03/02 13:59:16;;;;;;;12.07;7.03;;;;;;;6.61;51.94;99473.03;5070169;28;20139;-80
2022/03/02 14:01:43;;;;;;;16.33;6.75;;;;;;;6.63;51.36;99468.34;5073963;28;20056;-80
2022/03/02 14:04:13;;;;;;;9.27;5.75;;;;;;;6.43;50.79;99464.88;5070867;28;20094;-79
2022/03/02 14:06:43;;;;;;;9.90;6.68;;;;;;;6.49;52.17;99442.69;5073098;28;20059;-79
2022/03/02 14:09:13;;;;;;;10.48;7.00;;;;;;;6.69;51.31;99470.44;5073578;28;20136;-79
2022/03/02 14:11:43;;;;;;;10.68;6.70;;;;;;;6.65;51.70;99474.44;5072302;28;20132;-80
2022/03/02 14:14:15;;;;;;;10.50;6.57;;;;;;;6.66;51.67;99474.28;5069775;28;20040;-80
2022/03/02 14:16:59;;;;;;;12.43;6.28;;;;;;;6.60;52.04;99465.94;5071979;28;20058;-79
2022/03/02 14:19:27;;;;;;;14.73;6.65;;;;;;;6.57;51.77;99450.03;5067678;28;20045;-80
2022/03/02 14:21:56;;;;;;;11.77;6.63;;;;;;;6.48;52.26;99454.50;5073586;28;20045;-80
2022/03/02 14:24:26;;;;;;;11.07;6.50;;;;;;;6.53;51.12;99453.03;5070820;28;20144;-80
2022/03/02 14:27:10;;;;;;;13.13;6.47;;;;;;;6.61;51.16;99459.50;5071652;28;20052;-80
2022/03/02 14:29:40;;;;;;;11.73;7.95;;;;;;;6.51;51.56;99455.03;5070694;28;20499;-80
2022/03/02 14:32:12;;;;;;;;;;;;;;;6.66;51.09;99455.34;5066704;28;20522;-80
2022/03/02 14:34:51;;;;;;;9.88;5.93;;;;;;;6.24;51.03;99453.19;5068536;28;19931;-79
2022/03/02 14:37:20;;;;;;;17.40;6.18;;;;;;;6.18;52.37;99449.22;5070293;28;20106;-80
2022/03/02 14:40:07;;;;;;;14.60;7.22;;;;;;;6.18;52.12;99435.75;5071543;28;20131;-80
2022/03/02 14:42:35;;;;;;;10.60;6.82;;;;;;;6.33;52.21;99441.50;5071563;28;20170;-80
2022/03/02 14:45:24;;;;;;;11.25;6.50;;;;;;;6.51;52.59;99448.78;5069208;28;20380;-80
2022/03/02 14:47:54;;;;;;;17.15;7.03;;;;;;;6.49;51.97;99440.00;5077732;28;20050;-80
2022/03/02 14:50:28;;;;;;;10.38;6.30;;;;;;;6.69;51.48;99438.84;5069961;28;20044;-80
2022/03/02 14:52:57;;;;;;;15.55;8.07;;;;;;;6.81;51.38;99430.53;5072256;28;20080;-80
2022/03/02 14:55:31;;;;;;;16.90;6.95;;;;;;;6.60;51.96;99420.00;5070590;28;20045;-80
2022/03/02 14:57:59;;;;;;;11.35;6.43;;;;;;;6.67;53.42;99429.19;5064898;28;20052;-79
2022/03/02 15:00:27;;;;;;;12.32;6.97;;;;;;;6.35;54.12;99428.69;5057267;28;20659;-80
2022/03/02 15:02:54;;;;;;;18.27;6.25;;;;;;;6.26;54.22;99426.03;5067775;28;20048;-80
2022/03/02 15:05:24;;;;;;;12.85;7.47;;;;;;;6.37;54.80;99440.19;5069497;28;20044;-80
2022/03/02 15:07:51;;;;;;;10.82;6.53;;;;;;;6.32;54.77;99431.72;5067638;28;20080;-80
2022/03/02 15:10:20;;;;;;;12.32;7.35;;;;;;;6.48;55.02;99432.88;5067869;28;20376;-80
2022/03/02 15:15:35;;;;;;;14.05;7.05;;;;;;;6.41;54.92;99421.00;5063677;28;20442;-80
2022/03/02 15:18:09;;;;;;;11.55;6.78;;;;;;;6.59;54.17;99429.94;5067487;28;20389;-80
2022/03/02 15:20:36;;;;;;;13.55;6.63;;;;;;;6.20;55.25;99422.97;5067617;28;20141;-80
2022/03/02 15:23:05;;;;;;;12.25;7.03;;;;;;;6.42;55.20;99442.44;5067270;28;20671;-80
2022/03/02 15:25:32;;;;;;;14.13;6.63;;;;;;;6.38;55.30;99439.19;5066307;28;20078;-80
2022/03/02 15:28:06;;;;;;;11.60;6.72;;;;;;;6.29;55.08;99413.13;5068791;28;20052;-80
2022/03/02 15:30:35;;;;;;;10.90;6.28;;;;;;;6.32;55.03;99422.72;5072569;28;20041;-80
2022/03/02 15:33:07;;;;;;;12.57;6.20;;;;;;;6.29;55.50;99417.63;5068266;28;20518;-80
2022/03/02 15:35:36;;;;;;;10.77;6.43;;;;;;;6.33;55.10;99413.66;5063745;28;20488;-82
2022/03/02 15:38:05;;;;;;;11.10;6.80;;;;;;;6.30;55.38;99413.94;5062200;28;20058;-81
2022/03/02 15:40:38;;;;;;;14.98;7.32;;;;;;;6.44;55.49;99428.78;5065015;28;20376;-81
2022/03/02 15:43:08;;;;;;;11.00;7.35;;;;;;;6.28;55.81;99421.34;5064017;28;20044;-79
2022/03/02 15:45:36;;;;;;;11.32;6.78;;;;;;;6.23;56.25;99412.84;5066938;28;20055;-79
2022/03/02 15:48:06;;;;;;;11.98;6.68;;;;;;;6.35;55.95;99419.72;5064020;28;20052;-80
2022/03/02 15:50:37;;;;;;;19.67;8.23;;;;;;;6.33;56.32;99425.28;5067225;28;20051;-80
2022/03/02 15:53:07;;;;;;;18.45;8.18;;;;;;;6.24;56.79;99425.34;5065781;28;20048;-80
2022/03/02 15:55:37;;;;;;;18.23;8.02;;;;;;;6.33;57.15;99424.44;5063957;28;20044;-80
2022/03/02 15:58:08;;;;;;;15.50;7.00;;;;;;;6.24;56.42;99411.84;5067706;28;20049;-80
2022/03/02 16:00:37;;;;;;;15.77;7.70;;;;;;;6.18;57.10;99426.81;5065708;28;20041;-80
2022/03/02 16:03:05;;;;;;;12.63;6.97;;;;;;;6.05;57.69;99429.84;5067294;28;20052;-80
2022/03/02 16:05:34;;;;;;;12.55;6.35;;;;;;;6.09;56.32;99412.34;5067144;28;20488;-80
2022/03/02 16:08:15;;;;;;;17.73;7.70;;;;;;;6.06;57.82;99419.91;5066875;28;20044;-80
2022/03/02 16:10:43;;;;;;;12.43;6.60;;;;;;;5.91;58.14;99423.06;5062947;28;20060;-80
2022/03/02 16:13:25;;;;;;;11.55;6.45;;;;;;;5.96;58.39;99414.50;5060399;28;20461;-80
2022/03/02 16:15:53;;;;;;;13.05;6.93;;;;;;;5.99;58.62;99423.22;5066659;28;20067;-80
2022/03/02 16:18:23;;;;;;;12.27;7.25;;;;;;;5.82;58.75;99410.47;5067042;28;20056;-80
2022/03/02 16:20:52;;;;;;;;;;;;;;;5.91;58.78;99419.50;5066619;28;20188;-80
2022/03/02 16:23:21;;;;;;;11.80;7.60;;;;;;;5.68;60.14;99411.78;5070186;28;20009;-80
2022/03/02 16:25:59;;;;;;;16.60;8.60;;;;;;;5.69;60.64;99410.81;5067498;28;20048;-80
2022/03/02 16:28:29;;;;;;;12.57;7.28;;;;;;;5.58;61.02;99422.59;5064433;28;20338;-80
2022/03/02 16:30:57;;;;;;;16.45;7.05;;;;;;;5.39;61.13;99414.56;5066391;28;20123;-80
2022/03/02 16:33:28;;;;;;;10.38;6.60;;;;;;;5.25;61.28;99413.19;5068729;28;20040;-80
2022/03/02 16:35:59;;;;;;;13.40;7.63;;;;;;;5.42;61.27;99433.13;5068793;28;20048;-80
2022/03/02 16:38:25;;;;;;;12.13;6.88;;;;;;;5.17;62.40;99413.06;5079062;28;20040;-80
2022/03/02 16:40:55;;;;;;;14.27;7.85;;;;;;;5.30;62.26;99414.44;5073113;28;20049;-81
2022/03/02 16:43:23;;;;;;;19.02;9.82;;;;;;;5.19;62.99;99433.47;5065076;28;20385;-80
2022/03/02 16:45:52;;;;;;;66.15;28.88;;;;;;;5.32;62.45;99427.78;5065671;28;20075;-80
2022/03/02 16:48:20;;;;;;;189.10;64.27;;;;;;;5.24;62.52;99425.81;5066047;28;20087;-81
2022/03/02 16:50:49;;;;;;;188.93;61.42;;;;;;;5.14;62.70;99420.41;5066136;28;20053;-81
2022/03/02 16:53:16;;;;;;;62.20;20.77;;;;;;;5.12;63.11;99416.19;5072015;28;20496;-80
2022/03/02 16:55:44;;;;;;;23.48;10.75;;;;;;;5.06;63.06;99417.63;5072225;28;20054;-80
2022/03/02 16:58:11;;;;;;;18.98;8.10;;;;;;;5.11;63.22;99425.25;5067185;28;20047;-80
2022/03/02 17:00:40;;;;;;;23.45;9.30;;;;;;;5.10;63.08;99424.41;5079141;28;20057;-80
2022/03/02 17:03:10;;;;;;;85.68;26.60;;;;;;;5.15;61.94;99415.91;5072573;28;20048;-79
2022/03/02 17:05:36;;;;;;;135.43;41.47;;;;;;;5.07;62.15;99421.16;5071050;28;20483;-80
2022/03/02 17:08:03;;;;;;;34.78;12.70;;;;;;;5.02;62.51;99401.88;5071396;28;20048;-80
2022/03/02 17:10:31;;;;;;;21.20;8.57;;;;;;;4.95;63.40;99405.16;5067939;28;20126;-79
2022/03/02 17:12:58;;;;;;;18.58;7.38;;;;;;;4.91;63.94;99409.09;5069812;28;20098;-79
2022/03/02 17:15:24;;;;;;;15.77;8.38;;;;;;;4.89;64.72;99416.50;5074577;28;20044;-79
2022/03/02 17:17:51;;;;;;;14.32;8.55;;;;;;;4.77;66.60;99418.47;5078492;28;20117;-79
2022/03/02 17:20:20;;;;;;;22.40;8.35;;;;;;;4.71;64.84;99412.78;5070400;28;20048;-79
2022/03/02 17:22:48;;;;;;;15.40;8.30;;;;;;;4.54;65.85;99417.88;5071347;28;20068;-79
2022/03/02 17:25:15;;;;;;;17.50;7.88;;;;;;;4.61;65.42;99419.03;5069261;28;20044;-79
2022/03/02 17:27:42;;;;;;;16.60;7.90;;;;;;;4.44;65.37;99403.53;5070375;28;20052;-79
2022/03/02 17:30:12;;;;;;;19.58;8.80;;;;;;;4.50;65.19;99411.09;5069192;28;20098;-78
2022/03/02 17:32:39;;;;;;;19.08;9.10;;;;;;;4.60;65.52;99422.69;5069403;28;20043;-80
